Terminal Aerodrome Forecast
Issued by NWS

Home | Current Version | Previous Version | Text Only | Print | Product List | Glossary On
Versions: 1 2 3 4 5 6 7 8 9 10 11 12 13
000
FTUS42 TJSJ 231725
TAFKPK
TAF
TKPK 231725Z 2318/2418 05009KT P6SM FEW023
     FM232100 08006KT P6SM FEW030
     FM240000 07008KT P6SM VCSH SCT020
      AMD NOT SKED 2402/2411=

USA.gov is the U.S. government's official web portal to all federal, state and local government web resources and services.